sensor_id;sensor_type;location;lat;lon;timestamp;temperature;humidity
18287;DHT22;9269;50.838;12.094;2024-02-23T00:01:01;14.20;55.60
18287;DHT22;9269;50.838;12.094;2024-02-23T00:03:33;14.30;55.10
18287;DHT22;9269;50.838;12.094;2024-02-23T00:06:04;14.20;55.10
18287;DHT22;9269;50.838;12.094;2024-02-23T00:08:32;14.10;55.00
18287;DHT22;9269;50.838;12.094;2024-02-23T00:11:01;14.20;54.60
18287;DHT22;9269;50.838;12.094;2024-02-23T00:13:30;14.10;54.30
18287;DHT22;9269;50.838;12.094;2024-02-23T00:15:58;14.20;54.40
18287;DHT22;9269;50.838;12.094;2024-02-23T00:18:31;14.10;54.60
18287;DHT22;9269;50.838;12.094;2024-02-23T00:25:02;14.10;54.10
18287;DHT22;9269;50.838;12.094;2024-02-23T00:27:31;14.10;54.20
18287;DHT22;9269;50.838;12.094;2024-02-23T00:29:59;14.00;54.40
18287;DHT22;9269;50.838;12.094;2024-02-23T00:32:28;14.00;54.20
18287;DHT22;9269;50.838;12.094;2024-02-23T00:34:59;14.00;54.30
18287;DHT22;9269;50.838;12.094;2024-02-23T00:37:27;13.90;54.20
18287;DHT22;9269;50.838;12.094;2024-02-23T00:39:58;14.00;54.50
18287;DHT22;9269;50.838;12.094;2024-02-23T00:42:30;14.00;54.00
18287;DHT22;9269;50.838;12.094;2024-02-23T00:44:58;14.00;54.10
18287;DHT22;9269;50.838;12.094;2024-02-23T00:47:30;14.00;53.80
18287;DHT22;9269;50.838;12.094;2024-02-23T00:49:59;13.90;53.90
18287;DHT22;9269;50.838;12.094;2024-02-23T00:52:28;14.00;53.90
18287;DHT22;9269;50.838;12.094;2024-02-23T00:54:57;13.90;53.80
18287;DHT22;9269;50.838;12.094;2024-02-23T00:57:25;13.90;53.90
18287;DHT22;9269;50.838;12.094;2024-02-23T00:59:57;13.90;54.00
18287;DHT22;9269;50.838;12.094;2024-02-23T01:02:26;13.90;53.80
18287;DHT22;9269;50.838;12.094;2024-02-23T01:04:59;13.90;53.80
18287;DHT22;9269;50.838;12.094;2024-02-23T01:07:31;13.90;53.50
18287;DHT22;9269;50.838;12.094;2024-02-23T01:10:02;13.80;53.30
18287;DHT22;9269;50.838;12.094;2024-02-23T01:12:31;13.80;53.00
18287;DHT22;9269;50.838;12.094;2024-02-23T01:14:59;13.70;52.90
18287;DHT22;9269;50.838;12.094;2024-02-23T01:17:31;13.80;53.00
18287;DHT22;9269;50.838;12.094;2024-02-23T01:20:02;13.70;52.90
18287;DHT22;9269;50.838;12.094;2024-02-23T01:22:50;13.70;52.70
18287;DHT22;9269;50.838;12.094;2024-02-23T01:25:21;13.60;52.70
18287;DHT22;9269;50.838;12.094;2024-02-23T01:27:52;13.70;53.10
18287;DHT22;9269;50.838;12.094;2024-02-23T01:30:23;13.50;52.80
18287;DHT22;9269;50.838;12.094;2024-02-23T01:32:54;13.50;52.80
18287;DHT22;9269;50.838;12.094;2024-02-23T01:35:24;13.50;52.50
18287;DHT22;9269;50.838;12.094;2024-02-23T01:37:53;13.50;52.50
18287;DHT22;9269;50.838;12.094;2024-02-23T01:40:22;13.50;52.90
18287;DHT22;9269;50.838;12.094;2024-02-23T01:43:00;13.50;52.60
18287;DHT22;9269;50.838;12.094;2024-02-23T01:45:29;13.50;52.30
18287;DHT22;9269;50.838;12.094;2024-02-23T01:48:01;13.50;52.40
18287;DHT22;9269;50.838;12.094;2024-02-23T01:50:34;13.50;51.70
18287;DHT22;9269;50.838;12.094;2024-02-23T01:53:06;13.40;50.50
18287;DHT22;9269;50.838;12.094;2024-02-23T01:55:35;13.30;49.30
18287;DHT22;9269;50.838;12.094;2024-02-23T01:58:05;13.20;48.90
18287;DHT22;9269;50.838;12.094;2024-02-23T02:00:35;13.10;48.30
18287;DHT22;9269;50.838;12.094;2024-02-23T02:03:04;13.00;47.00
18287;DHT22;9269;50.838;12.094;2024-02-23T02:05:40;13.00;45.60
18287;DHT22;9269;50.838;12.094;2024-02-23T02:08:12;13.00;44.80
18287;DHT22;9269;50.838;12.094;2024-02-23T02:10:40;12.90;44.40
18287;DHT22;9269;50.838;12.094;2024-02-23T02:13:12;12.90;44.10
18287;DHT22;9269;50.838;12.094;2024-02-23T02:15:43;12.80;44.20
18287;DHT22;9269;50.838;12.094;2024-02-23T02:18:12;12.70;43.10
18287;DHT22;9269;50.838;12.094;2024-02-23T02:20:50;12.70;42.90
18287;DHT22;9269;50.838;12.094;2024-02-23T02:23:19;12.70;44.20
18287;DHT22;9269;50.838;12.094;2024-02-23T02:25:52;12.60;43.90
18287;DHT22;9269;50.838;12.094;2024-02-23T02:28:25;12.60;44.00
18287;DHT22;9269;50.838;12.094;2024-02-23T02:30:56;12.40;44.10
18287;DHT22;9269;50.838;12.094;2024-02-23T02:33:27;12.50;44.30
18287;DHT22;9269;50.838;12.094;2024-02-23T02:36:00;12.40;44.00
18287;DHT22;9269;50.838;12.094;2024-02-23T02:38:31;12.30;43.70
18287;DHT22;9269;50.838;12.094;2024-02-23T02:41:17;12.30;43.20
18287;DHT22;9269;50.838;12.094;2024-02-23T02:43:47;12.20;43.10
18287;DHT22;9269;50.838;12.094;2024-02-23T02:46:15;12.30;43.40
18287;DHT22;9269;50.838;12.094;2024-02-23T02:48:44;12.10;43.50
18287;DHT22;9269;50.838;12.094;2024-02-23T02:51:15;12.10;43.50
18287;DHT22;9269;50.838;12.094;2024-02-23T02:53:46;12.20;43.00
18287;DHT22;9269;50.838;12.094;2024-02-23T02:56:17;12.20;43.30
18287;DHT22;9269;50.838;12.094;2024-02-23T02:58:49;12.00;43.50
18287;DHT22;9269;50.838;12.094;2024-02-23T03:01:17;11.90;43.40
18287;DHT22;9269;50.838;12.094;2024-02-23T03:03:46;12.20;43.80
18287;DHT22;9269;50.838;12.094;2024-02-23T03:06:16;12.10;43.90
18287;DHT22;9269;50.838;12.094;2024-02-23T03:08:44;12.00;44.00
18287;DHT22;9269;50.838;12.094;2024-02-23T03:11:33;11.90;43.60
18287;DHT22;9269;50.838;12.094;2024-02-23T03:14:04;11.90;43.90
18287;DHT22;9269;50.838;12.094;2024-02-23T03:16:36;11.90;43.80
18287;DHT22;9269;50.838;12.094;2024-02-23T03:19:07;11.80;43.90
18287;DHT22;9269;50.838;12.094;2024-02-23T03:21:40;11.90;44.40
18287;DHT22;9269;50.838;12.094;2024-02-23T03:24:08;11.80;44.10
18287;DHT22;9269;50.838;12.094;2024-02-23T03:26:37;11.70;44.30
18287;DHT22;9269;50.838;12.094;2024-02-23T03:29:23;11.80;44.20
18287;DHT22;9269;50.838;12.094;2024-02-23T03:31:51;11.60;44.50
18287;DHT22;9269;50.838;12.094;2024-02-23T03:34:38;11.60;44.40
18287;DHT22;9269;50.838;12.094;2024-02-23T03:37:10;11.60;44.60
18287;DHT22;9269;50.838;12.094;2024-02-23T03:39:41;11.50;44.80
18287;DHT22;9269;50.838;12.094;2024-02-23T03:42:11;11.60;45.00
18287;DHT22;9269;50.838;12.094;2024-02-23T03:44:39;11.60;45.00
18287;DHT22;9269;50.838;12.094;2024-02-23T03:47:08;11.50;44.90
18287;DHT22;9269;50.838;12.094;2024-02-23T03:49:37;11.50;45.30
18287;DHT22;9269;50.838;12.094;2024-02-23T03:52:05;11.70;45.20
18287;DHT22;9269;50.838;12.094;2024-02-23T03:54:35;11.60;45.30
18287;DHT22;9269;50.838;12.094;2024-02-23T03:57:06;11.70;45.30
18287;DHT22;9269;50.838;12.094;2024-02-23T03:59:36;11.60;45.30
18287;DHT22;9269;50.838;12.094;2024-02-23T04:02:08;11.50;45.30
18287;DHT22;9269;50.838;12.094;2024-02-23T04:04:39;11.50;45.70
18287;DHT22;9269;50.838;12.094;2024-02-23T04:07:07;11.50;45.70
18287;DHT22;9269;50.838;12.094;2024-02-23T04:09:37;11.50;45.60
18287;DHT22;9269;50.838;12.094;2024-02-23T04:12:06;11.50;46.00
18287;DHT22;9269;50.838;12.094;2024-02-23T04:14:35;11.40;45.80
18287;DHT22;9269;50.838;12.094;2024-02-23T04:17:23;11.30;46.20
18287;DHT22;9269;50.838;12.094;2024-02-23T04:19:55;11.20;46.40
18287;DHT22;9269;50.838;12.094;2024-02-23T04:22:26;11.20;46.00
18287;DHT22;9269;50.838;12.094;2024-02-23T04:24:58;11.20;46.30
18287;DHT22;9269;50.838;12.094;2024-02-23T04:27:28;11.00;46.80
18287;DHT22;9269;50.838;12.094;2024-02-23T04:29:56;11.00;46.70
18287;DHT22;9269;50.838;12.094;2024-02-23T04:32:25;11.00;46.30
18287;DHT22;9269;50.838;12.094;2024-02-23T04:34:53;10.90;46.10
18287;DHT22;9269;50.838;12.094;2024-02-23T04:37:21;10.90;45.70
18287;DHT22;9269;50.838;12.094;2024-02-23T04:39:53;10.90;45.70
18287;DHT22;9269;50.838;12.094;2024-02-23T04:42:26;10.90;45.40
18287;DHT22;9269;50.838;12.094;2024-02-23T04:44:57;10.90;44.70
18287;DHT22;9269;50.838;12.094;2024-02-23T04:47:28;10.80;44.80
18287;DHT22;9269;50.838;12.094;2024-02-23T04:49:57;10.80;45.20
18287;DHT22;9269;50.838;12.094;2024-02-23T04:52:26;10.80;45.00
18287;DHT22;9269;50.838;12.094;2024-02-23T04:54:55;10.90;45.40
18287;DHT22;9269;50.838;12.094;2024-02-23T04:57:25;10.80;45.40
18287;DHT22;9269;50.838;12.094;2024-02-23T04:59:53;10.70;45.10
18287;DHT22;9269;50.838;12.094;2024-02-23T05:02:25;10.70;45.10
18287;DHT22;9269;50.838;12.094;2024-02-23T05:04:59;10.80;45.20
18287;DHT22;9269;50.838;12.094;2024-02-23T05:07:30;10.70;45.00
18287;DHT22;9269;50.838;12.094;2024-02-23T05:10:02;10.70;45.10
18287;DHT22;9269;50.838;12.094;2024-02-23T05:12:32;10.80;45.40
18287;DHT22;9269;50.838;12.094;2024-02-23T05:15:01;10.70;46.00
18287;DHT22;9269;50.838;12.094;2024-02-23T05:17:30;10.70;46.10
18287;DHT22;9269;50.838;12.094;2024-02-23T05:19:59;10.70;46.30
18287;DHT22;9269;50.838;12.094;2024-02-23T05:22:29;10.60;46.50
18287;DHT22;9269;50.838;12.094;2024-02-23T05:25:00;10.80;46.50
18287;DHT22;9269;50.838;12.094;2024-02-23T05:27:29;10.70;46.70
18287;DHT22;9269;50.838;12.094;2024-02-23T05:30:01;10.70;46.70
18287;DHT22;9269;50.838;12.094;2024-02-23T05:32:33;10.70;46.90
18287;DHT22;9269;50.838;12.094;2024-02-23T05:35:02;10.70;46.50
18287;DHT22;9269;50.838;12.094;2024-02-23T05:37:31;10.80;47.00
18287;DHT22;9269;50.838;12.094;2024-02-23T05:39:59;10.60;47.40
18287;DHT22;9269;50.838;12.094;2024-02-23T05:42:31;10.70;47.10
18287;DHT22;9269;50.838;12.094;2024-02-23T05:45:08;10.70;47.50
18287;DHT22;9269;50.838;12.094;2024-02-23T05:47:39;10.60;47.50
18287;DHT22;9269;50.838;12.094;2024-02-23T05:50:17;10.60;47.50
18287;DHT22;9269;50.838;12.094;2024-02-23T05:52:48;10.60;47.60
18287;DHT22;9269;50.838;12.094;2024-02-23T05:55:17;10.70;47.60
18287;DHT22;9269;50.838;12.094;2024-02-23T05:57:45;10.70;47.10
18287;DHT22;9269;50.838;12.094;2024-02-23T06:00:16;10.70;47.00
18287;DHT22;9269;50.838;12.094;2024-02-23T06:02:46;10.70;47.20
18287;DHT22;9269;50.838;12.094;2024-02-23T06:05:15;10.70;47.30
18287;DHT22;9269;50.838;12.094;2024-02-23T06:07:47;10.70;47.40
18287;DHT22;9269;50.838;12.094;2024-02-23T06:10:18;10.50;47.00
18287;DHT22;9269;50.838;12.094;2024-02-23T06:12:47;10.60;47.10
18287;DHT22;9269;50.838;12.094;2024-02-23T06:15:19;10.50;47.20
18287;DHT22;9269;50.838;12.094;2024-02-23T06:17:48;10.60;47.10
18287;DHT22;9269;50.838;12.094;2024-02-23T06:20:16;10.50;47.70
18287;DHT22;9269;50.838;12.094;2024-02-23T06:22:47;10.50;47.70
18287;DHT22;9269;50.838;12.094;2024-02-23T06:25:31;10.60;47.40
18287;DHT22;9269;50.838;12.094;2024-02-23T06:28:19;10.60;47.30
18287;DHT22;9269;50.838;12.094;2024-02-23T06:31:07;10.60;47.40
18287;DHT22;9269;50.838;12.094;2024-02-23T06:33:39;10.70;47.60
18287;DHT22;9269;50.838;12.094;2024-02-23T06:36:11;10.70;47.50
18287;DHT22;9269;50.838;12.094;2024-02-23T06:38:41;10.60;47.20
18287;DHT22;9269;50.838;12.094;2024-02-23T06:41:09;10.70;47.20
18287;DHT22;9269;50.838;12.094;2024-02-23T06:43:38;10.60;47.60
18287;DHT22;9269;50.838;12.094;2024-02-23T06:46:08;10.60;47.50
18287;DHT22;9269;50.838;12.094;2024-02-23T06:48:37;10.70;47.60
18287;DHT22;9269;50.838;12.094;2024-02-23T06:51:09;10.70;47.60
18287;DHT22;9269;50.838;12.094;2024-02-23T06:53:40;10.70;47.20
18287;DHT22;9269;50.838;12.094;2024-02-23T06:56:11;10.70;47.40
18287;DHT22;9269;50.838;12.094;2024-02-23T06:58:42;10.70;47.00
18287;DHT22;9269;50.838;12.094;2024-02-23T07:01:12;10.70;47.30
18287;DHT22;9269;50.838;12.094;2024-02-23T07:03:40;10.70;47.40
18287;DHT22;9269;50.838;12.094;2024-02-23T07:06:11;10.70;47.30
18287;DHT22;9269;50.838;12.094;2024-02-23T07:08:39;10.70;47.30
18287;DHT22;9269;50.838;12.094;2024-02-23T07:11:23;10.70;47.40
18287;DHT22;9269;50.838;12.094;2024-02-23T07:13:54;10.70;47.40
18287;DHT22;9269;50.838;12.094;2024-02-23T07:16:26;10.70;47.50
18287;DHT22;9269;50.838;12.094;2024-02-23T07:18:55;10.80;47.70
18287;DHT22;9269;50.838;12.094;2024-02-23T07:21:26;10.70;47.50
18287;DHT22;9269;50.838;12.094;2024-02-23T07:23:54;10.80;47.60
18287;DHT22;9269;50.838;12.094;2024-02-23T07:26:23;10.80;47.60
18287;DHT22;9269;50.838;12.094;2024-02-23T07:28:52;10.80;47.80
18287;DHT22;9269;50.838;12.094;2024-02-23T07:31:20;10.70;47.60
18287;DHT22;9269;50.838;12.094;2024-02-23T07:34:00;10.70;47.70
18287;DHT22;9269;50.838;12.094;2024-02-23T07:36:31;10.80;47.90
18287;DHT22;9269;50.838;12.094;2024-02-23T07:39:00;10.80;48.10
18287;DHT22;9269;50.838;12.094;2024-02-23T07:41:29;10.80;47.50
18287;DHT22;9269;50.838;12.094;2024-02-23T07:43:58;10.90;47.70
18287;DHT22;9269;50.838;12.094;2024-02-23T07:46:26;10.90;47.40
18287;DHT22;9269;50.838;12.094;2024-02-23T07:48:55;10.90;47.60
18287;DHT22;9269;50.838;12.094;2024-02-23T07:51:25;10.90;47.80
18287;DHT22;9269;50.838;12.094;2024-02-23T07:53:53;10.90;47.80
18287;DHT22;9269;50.838;12.094;2024-02-23T07:56:24;10.90;48.10
18287;DHT22;9269;50.838;12.094;2024-02-23T07:58:54;10.90;47.70
18287;DHT22;9269;50.838;12.094;2024-02-23T08:01:24;10.90;47.30
18287;DHT22;9269;50.838;12.094;2024-02-23T08:03:56;10.90;47.50
18287;DHT22;9269;50.838;12.094;2024-02-23T08:06:27;10.90;47.10
18287;DHT22;9269;50.838;12.094;2024-02-23T08:08:55;10.80;47.20
18287;DHT22;9269;50.838;12.094;2024-02-23T08:11:24;10.80;47.60
18287;DHT22;9269;50.838;12.094;2024-02-23T08:13:52;10.80;47.00
18287;DHT22;9269;50.838;12.094;2024-02-23T08:16:21;10.80;47.40
18287;DHT22;9269;50.838;12.094;2024-02-23T08:18:52;10.80;47.20
18287;DHT22;9269;50.838;12.094;2024-02-23T08:21:24;10.90;47.30
18287;DHT22;9269;50.838;12.094;2024-02-23T08:23:55;10.90;47.00
18287;DHT22;9269;50.838;12.094;2024-02-23T08:26:26;11.00;46.50
18287;DHT22;9269;50.838;12.094;2024-02-23T08:28:54;10.90;46.30
18287;DHT22;9269;50.838;12.094;2024-02-23T08:31:23;11.10;46.20
18287;DHT22;9269;50.838;12.094;2024-02-23T08:33:52;11.00;46.40
18287;DHT22;9269;50.838;12.094;2024-02-23T08:36:20;11.00;45.60
18287;DHT22;9269;50.838;12.094;2024-02-23T08:38:49;10.90;45.30
18287;DHT22;9269;50.838;12.094;2024-02-23T08:41:21;11.00;44.80
18287;DHT22;9269;50.838;12.094;2024-02-23T08:43:52;10.90;44.50
18287;DHT22;9269;50.838;12.094;2024-02-23T08:46:25;11.00;44.20
18287;DHT22;9269;50.838;12.094;2024-02-23T08:48:56;11.00;44.40
18287;DHT22;9269;50.838;12.094;2024-02-23T08:51:24;11.00;43.80
18287;DHT22;9269;50.838;12.094;2024-02-23T08:53:53;11.10;43.90
18287;DHT22;9269;50.838;12.094;2024-02-23T08:56:28;11.20;43.50
18287;DHT22;9269;50.838;12.094;2024-02-23T08:58:57;11.10;43.60
18287;DHT22;9269;50.838;12.094;2024-02-23T09:01:40;11.10;43.30
18287;DHT22;9269;50.838;12.094;2024-02-23T09:04:11;11.20;43.20
18287;DHT22;9269;50.838;12.094;2024-02-23T09:06:41;11.10;43.20
18287;DHT22;9269;50.838;12.094;2024-02-23T09:09:12;11.20;43.10
18287;DHT22;9269;50.838;12.094;2024-02-23T09:11:45;11.30;42.60
18287;DHT22;9269;50.838;12.094;2024-02-23T09:14:14;11.20;42.60
18287;DHT22;9269;50.838;12.094;2024-02-23T09:16:42;11.20;42.40
18287;DHT22;9269;50.838;12.094;2024-02-23T09:19:11;11.20;42.00
18287;DHT22;9269;50.838;12.094;2024-02-23T09:21:57;11.30;42.30
18287;DHT22;9269;50.838;12.094;2024-02-23T09:24:30;11.40;42.00
18287;DHT22;9269;50.838;12.094;2024-02-23T09:27:01;11.40;42.00
18287;DHT22;9269;50.838;12.094;2024-02-23T09:29:34;11.40;41.70
18287;DHT22;9269;50.838;12.094;2024-02-23T09:32:06;11.40;41.50
18287;DHT22;9269;50.838;12.094;2024-02-23T09:34:35;11.40;41.60
18287;DHT22;9269;50.838;12.094;2024-02-23T09:37:04;11.60;41.60
18287;DHT22;9269;50.838;12.094;2024-02-23T09:39:32;11.60;40.70
18287;DHT22;9269;50.838;12.094;2024-02-23T09:42:02;11.60;40.60
18287;DHT22;9269;50.838;12.094;2024-02-23T09:44:57;11.60;41.00
18287;DHT22;9269;50.838;12.094;2024-02-23T09:47:29;11.70;40.70
18287;DHT22;9269;50.838;12.094;2024-02-23T09:50:03;11.80;40.00
18287;DHT22;9269;50.838;12.094;2024-02-23T09:52:35;11.90;39.50
18287;DHT22;9269;50.838;12.094;2024-02-23T09:55:06;11.70;39.60
18287;DHT22;9269;50.838;12.094;2024-02-23T09:57:37;11.90;39.40
18287;DHT22;9269;50.838;12.094;2024-02-23T10:00:07;11.90;38.60
18287;DHT22;9269;50.838;12.094;2024-02-23T10:02:36;11.90;38.70
18287;DHT22;9269;50.838;12.094;2024-02-23T10:05:06;11.80;38.90
18287;DHT22;9269;50.838;12.094;2024-02-23T10:07:38;12.00;38.90
18287;DHT22;9269;50.838;12.094;2024-02-23T10:10:10;11.90;38.70
18287;DHT22;9269;50.838;12.094;2024-02-23T10:12:43;12.00;38.40
18287;DHT22;9269;50.838;12.094;2024-02-23T10:15:15;12.20;38.70
18287;DHT22;9269;50.838;12.094;2024-02-23T10:17:43;12.20;38.70
18287;DHT22;9269;50.838;12.094;2024-02-23T10:20:12;12.20;38.80
18287;DHT22;9269;50.838;12.094;2024-02-23T10:22:40;12.30;38.80
18287;DHT22;9269;50.838;12.094;2024-02-23T10:25:09;12.20;38.50
18287;DHT22;9269;50.838;12.094;2024-02-23T10:27:37;12.20;38.20
18287;DHT22;9269;50.838;12.094;2024-02-23T10:30:11;12.30;38.50
18287;DHT22;9269;50.838;12.094;2024-02-23T10:32:45;12.30;38.60
18287;DHT22;9269;50.838;12.094;2024-02-23T10:35:17;12.30;38.30
18287;DHT22;9269;50.838;12.094;2024-02-23T10:37:49;12.20;38.30
18287;DHT22;9269;50.838;12.094;2024-02-23T10:40:20;12.30;37.80
18287;DHT22;9269;50.838;12.094;2024-02-23T10:42:50;12.30;37.60
18287;DHT22;9269;50.838;12.094;2024-02-23T10:45:22;12.20;38.00
18287;DHT22;9269;50.838;12.094;2024-02-23T10:47:51;12.30;37.90
18287;DHT22;9269;50.838;12.094;2024-02-23T10:50:40;12.30;37.70
18287;DHT22;9269;50.838;12.094;2024-02-23T10:53:13;12.20;37.80
18287;DHT22;9269;50.838;12.094;2024-02-23T10:55:44;12.20;37.40
18287;DHT22;9269;50.838;12.094;2024-02-23T10:58:16;12.20;37.50
18287;DHT22;9269;50.838;12.094;2024-02-23T11:00:46;12.10;37.60
18287;DHT22;9269;50.838;12.094;2024-02-23T11:03:17;12.10;37.30
18287;DHT22;9269;50.838;12.094;2024-02-23T11:05:47;12.10;37.30
18287;DHT22;9269;50.838;12.094;2024-02-23T11:08:17;12.10;37.70
18287;DHT22;9269;50.838;12.094;2024-02-23T11:10:50;12.20;37.50
18287;DHT22;9269;50.838;12.094;2024-02-23T11:13:30;12.20;37.20
18287;DHT22;9269;50.838;12.094;2024-02-23T11:16:03;12.00;37.20
18287;DHT22;9269;50.838;12.094;2024-02-23T11:18:35;12.20;37.30
18287;DHT22;9269;50.838;12.094;2024-02-23T11:21:09;12.10;36.80
18287;DHT22;9269;50.838;12.094;2024-02-23T11:23:40;12.10;37.00
18287;DHT22;9269;50.838;12.094;2024-02-23T11:26:10;12.20;37.30
18287;DHT22;9269;50.838;12.094;2024-02-23T11:28:42;12.20;37.30
18287;DHT22;9269;50.838;12.094;2024-02-23T11:31:13;12.30;37.30
18287;DHT22;9269;50.838;12.094;2024-02-23T11:34:02;12.20;37.00
18287;DHT22;9269;50.838;12.094;2024-02-23T11:36:39;12.40;37.10
18287;DHT22;9269;50.838;12.094;2024-02-23T11:39:10;12.30;37.20
18287;DHT22;9269;50.838;12.094;2024-02-23T11:41:40;12.40;37.60
18287;DHT22;9269;50.838;12.094;2024-02-23T11:44:10;12.40;37.30
18287;DHT22;9269;50.838;12.094;2024-02-23T11:46:42;12.50;37.50
18287;DHT22;9269;50.838;12.094;2024-02-23T11:49:10;12.40;37.60
18287;DHT22;9269;50.838;12.094;2024-02-23T11:51:39;12.50;37.70
18287;DHT22;9269;50.838;12.094;2024-02-23T11:54:07;12.50;37.30
18287;DHT22;9269;50.838;12.094;2024-02-23T11:56:36;12.50;37.50
18287;DHT22;9269;50.838;12.094;2024-02-23T11:59:05;12.50;37.60
18287;DHT22;9269;50.838;12.094;2024-02-23T12:01:36;12.50;37.40
18287;DHT22;9269;50.838;12.094;2024-02-23T12:04:08;12.40;37.30
18287;DHT22;9269;50.838;12.094;2024-02-23T12:06:37;12.50;37.80
18287;DHT22;9269;50.838;12.094;2024-02-23T12:09:05;12.40;37.70
18287;DHT22;9269;50.838;12.094;2024-02-23T12:11:35;12.40;37.50
18287;DHT22;9269;50.838;12.094;2024-02-23T12:14:04;12.40;37.70
18287;DHT22;9269;50.838;12.094;2024-02-23T12:16:35;12.40;37.80
18287;DHT22;9269;50.838;12.094;2024-02-23T12:19:09;12.40;37.90
18287;DHT22;9269;50.838;12.094;2024-02-23T12:21:45;12.40;37.80
18287;DHT22;9269;50.838;12.094;2024-02-23T12:24:13;12.40;37.30
18287;DHT22;9269;50.838;12.094;2024-02-23T12:26:44;12.30;37.60
18287;DHT22;9269;50.838;12.094;2024-02-23T12:29:13;12.30;37.20
18287;DHT22;9269;50.838;12.094;2024-02-23T12:31:42;12.30;37.40
18287;DHT22;9269;50.838;12.094;2024-02-23T12:34:13;12.30;37.30
18287;DHT22;9269;50.838;12.094;2024-02-23T12:36:43;12.30;37.40
18287;DHT22;9269;50.838;12.094;2024-02-23T12:39:33;12.30;37.40
18287;DHT22;9269;50.838;12.094;2024-02-23T12:42:04;12.30;37.40
18287;DHT22;9269;50.838;12.094;2024-02-23T12:44:35;12.30;37.60
18287;DHT22;9269;50.838;12.094;2024-02-23T12:47:06;12.40;37.70
18287;DHT22;9269;50.838;12.094;2024-02-23T12:49:37;12.40;37.80
18287;DHT22;9269;50.838;12.094;2024-02-23T12:52:12;12.40;38.00
18287;DHT22;9269;50.838;12.094;2024-02-23T12:54:40;12.40;38.00
18287;DHT22;9269;50.838;12.094;2024-02-23T12:57:09;12.40;37.70
18287;DHT22;9269;50.838;12.094;2024-02-23T12:59:37;12.40;37.90
18287;DHT22;9269;50.838;12.094;2024-02-23T13:02:11;12.50;37.80
18287;DHT22;9269;50.838;12.094;2024-02-23T13:04:44;12.40;37.50
18287;DHT22;9269;50.838;12.094;2024-02-23T13:07:19;12.40;37.80
18287;DHT22;9269;50.838;12.094;2024-02-23T13:09:50;12.30;37.70
18287;DHT22;9269;50.838;12.094;2024-02-23T13:12:19;12.10;37.00
18287;DHT22;9269;50.838;12.094;2024-02-23T13:14:47;12.10;37.30
18287;DHT22;9269;50.838;12.094;2024-02-23T13:17:16;12.20;36.70
18287;DHT22;9269;50.838;12.094;2024-02-23T13:19:46;12.00;36.90
18287;DHT22;9269;50.838;12.094;2024-02-23T13:22:31;12.10;36.50
18287;DHT22;9269;50.838;12.094;2024-02-23T13:25:03;11.90;36.50
18287;DHT22;9269;50.838;12.094;2024-02-23T13:27:33;12.00;36.50
18287;DHT22;9269;50.838;12.094;2024-02-23T13:30:04;11.80;36.70
18287;DHT22;9269;50.838;12.094;2024-02-23T13:32:36;11.90;36.40
18287;DHT22;9269;50.838;12.094;2024-02-23T13:35:07;11.90;36.50
18287;DHT22;9269;50.838;12.094;2024-02-23T13:37:35;11.80;36.70
18287;DHT22;9269;50.838;12.094;2024-02-23T13:40:05;11.90;36.40
18287;DHT22;9269;50.838;12.094;2024-02-23T13:42:36;11.80;36.50
18287;DHT22;9269;50.838;12.094;2024-02-23T13:45:11;11.80;36.40
18287;DHT22;9269;50.838;12.094;2024-02-23T13:47:42;11.80;36.50
18287;DHT22;9269;50.838;12.094;2024-02-23T13:50:16;11.80;36.70
18287;DHT22;9269;50.838;12.094;2024-02-23T13:52:44;11.90;36.30
18287;DHT22;9269;50.838;12.094;2024-02-23T13:55:14;11.90;36.70
18287;DHT22;9269;50.838;12.094;2024-02-23T13:57:42;12.00;36.30
18287;DHT22;9269;50.838;12.094;2024-02-23T14:00:12;11.90;36.70
18287;DHT22;9269;50.838;12.094;2024-02-23T14:02:40;11.80;36.50
18287;DHT22;9269;50.838;12.094;2024-02-23T14:05:09;11.90;36.60
18287;DHT22;9269;50.838;12.094;2024-02-23T14:07:40;11.80;36.80
18287;DHT22;9269;50.838;12.094;2024-02-23T14:10:10;11.90;36.40
18287;DHT22;9269;50.838;12.094;2024-02-23T14:12:42;11.70;36.40
18287;DHT22;9269;50.838;12.094;2024-02-23T14:15:12;11.70;36.30
18287;DHT22;9269;50.838;12.094;2024-02-23T14:17:42;11.70;36.60
18287;DHT22;9269;50.838;12.094;2024-02-23T14:20:26;11.70;36.50
18287;DHT22;9269;50.838;12.094;2024-02-23T14:22:57;11.70;36.40
18287;DHT22;9269;50.838;12.094;2024-02-23T14:25:25;11.70;36.60
18287;DHT22;9269;50.838;12.094;2024-02-23T14:27:54;11.60;36.40
18287;DHT22;9269;50.838;12.094;2024-02-23T14:30:26;11.70;36.60
18287;DHT22;9269;50.838;12.094;2024-02-23T14:32:57;11.60;36.80
18287;DHT22;9269;50.838;12.094;2024-02-23T14:35:29;11.50;36.50
18287;DHT22;9269;50.838;12.094;2024-02-23T14:37:59;11.70;36.30
18287;DHT22;9269;50.838;12.094;2024-02-23T14:40:28;11.70;36.50
18287;DHT22;9269;50.838;12.094;2024-02-23T14:42:56;11.80;36.60
18287;DHT22;9269;50.838;12.094;2024-02-23T14:45:26;11.80;36.60
18287;DHT22;9269;50.838;12.094;2024-02-23T14:47:55;11.70;36.40
18287;DHT22;9269;50.838;12.094;2024-02-23T14:50:41;11.70;36.70
18287;DHT22;9269;50.838;12.094;2024-02-23T14:53:14;11.60;36.50
18287;DHT22;9269;50.838;12.094;2024-02-23T14:55:46;11.60;36.30
18287;DHT22;9269;50.838;12.094;2024-02-23T14:58:18;11.60;36.40
18287;DHT22;9269;50.838;12.094;2024-02-23T15:00:49;11.50;36.30
18287;DHT22;9269;50.838;12.094;2024-02-23T15:03:18;11.60;36.30
18287;DHT22;9269;50.838;12.094;2024-02-23T15:05:46;11.70;36.40
18287;DHT22;9269;50.838;12.094;2024-02-23T15:08:16;11.60;36.80
18287;DHT22;9269;50.838;12.094;2024-02-23T15:10:44;11.80;36.70
18287;DHT22;9269;50.838;12.094;2024-02-23T15:13:15;11.60;36.60
18287;DHT22;9269;50.838;12.094;2024-02-23T15:15:46;11.70;36.90
18287;DHT22;9269;50.838;12.094;2024-02-23T15:18:17;11.70;37.10
18287;DHT22;9269;50.838;12.094;2024-02-23T15:20:46;11.70;37.30
18287;DHT22;9269;50.838;12.094;2024-02-23T15:23:16;11.70;36.90
18287;DHT22;9269;50.838;12.094;2024-02-23T15:25:45;11.70;36.70
18287;DHT22;9269;50.838;12.094;2024-02-23T15:28:20;11.70;37.10
18287;DHT22;9269;50.838;12.094;2024-02-23T15:30:50;11.80;37.30
18287;DHT22;9269;50.838;12.094;2024-02-23T15:33:20;11.70;37.10
18287;DHT22;9269;50.838;12.094;2024-02-23T15:35:52;11.70;37.40
18287;DHT22;9269;50.838;12.094;2024-02-23T15:38:25;11.70;37.30
18287;DHT22;9269;50.838;12.094;2024-02-23T15:40:56;11.70;37.80
18287;DHT22;9269;50.838;12.094;2024-02-23T15:43:28;11.70;37.60
18287;DHT22;9269;50.838;12.094;2024-02-23T15:45:56;11.70;38.10
18287;DHT22;9269;50.838;12.094;2024-02-23T15:48:25;11.60;37.80
18287;DHT22;9269;50.838;12.094;2024-02-23T15:50:54;11.70;37.70
18287;DHT22;9269;50.838;12.094;2024-02-23T15:53:44;11.60;38.10
18287;DHT22;9269;50.838;12.094;2024-02-23T15:56:31;11.40;38.00
18287;DHT22;9269;50.838;12.094;2024-02-23T15:59:03;11.30;37.80